Data for 09/19/2006

Time Sea-Level Adjusted Pressure Absolute Pressure Temperature Relative Humidity Dew Point   
(mb) (inHg) (mb) (inHg) (C) (F) (%) (C) (F)
00:05 1018 30.06 848 25.04 9.8 49.6 48 -0.7 30.7
00:10 1018 30.06 848 25.04 10 50 47 -0.6 30.9
00:15 1018 30.06 848 25.04 9.9 49.7 49 -0.4 31.2
00:20 1018 30.06 848 25.04 9.7 49.4 49 -0.4 31.3
00:25 1018 30.06 848 25.04 9.6 49.3 50 -0.3 31.4
00:30 1018 30.06 847 25.01 9.6 49.2 49 -0.6 30.9
00:35 1018 30.06 847 25.01 9.6 49.3 49 -0.5 31.1
00:40 1018 30.06 847 25.01 9.9 49.8 48 -0.7 30.8
00:45 1018 30.06 847 25.01 9.9 49.8 49 -0.4 31.2
00:50 1018 30.06 847 25.01 9.7 49.5 48 -0.8 30.6
00:55 1018 30.06 847 25.01 9.8 49.7 47 -0.8 30.5
01:00 1018 30.06 847 25.01 9.7 49.5 48 -0.7 30.7
01:05 1018 30.06 847 25.01 9.6 49.3 49 -0.6 30.8
01:10 1018 30.06 847 25.01 9.5 49.1 49 -0.5 31.1
01:15 1018 30.06 847 25.01 9.4 49 49 -0.7 30.8
01:20 1018 30.06 847 25.01 9.5 49.1 49 -0.8 30.6
01:25 1018 30.06 847 25.01 9.9 49.9 45 -1.4 29.6
01:30 1018 30.06 847 25.01 10.2 50.3 45 -1.1 30
01:35 1018 30.06 847 25.01 10.2 50.3 45 -1.3 29.7
01:40 1018 30.06 847 25.01 10.3 50.5 44 -1.6 29.2
01:45 1018 30.06 847 25.01 10.4 50.7 44 -1.4 29.5
01:50 1018 30.06 847 25.01 10.5 50.8 42 -1.7 28.9
01:55 1018 30.06 847 25.01 10.5 50.8 43 -1.5 29.4
02:00 1018 30.06 847 25.01 10.3 50.5 45 -1.2 29.9
02:05 1018 30.06 847 25.01 9.9 49.9 45 -1.3 29.7
02:10 1018 30.06 847 25.01 9.5 49 48 -0.9 30.4
02:15 1018 30.06 847 25.01 9.2 48.6 47 -1.4 29.4
02:20 1018 30.06 847 25.01 9.7 49.5 45 -1.7 29
02:25 1018 30.06 847 25.01 10 50 44 -1.7 29
02:30 1018 30.06 847 25.01 10 50 45 -1.3 29.6
02:35 1018 30.06 847 25.01 9.9 49.8 46 -1.3 29.7
02:40 1018 30.06 847 25.01 9.8 49.6 45 -1.5 29.3
02:45 1018 30.06 847 25.01 9.7 49.5 46 -1.3 29.7
02:50 1018 30.06 847 25.01 9.5 49.2 46 -1.4 29.6
02:55 1018 30.06 847 25.01 9.2 48.6 48 -1.1 30
03:00 1018 30.06 847 25.01 8.9 48 49 -1.3 29.7
03:05 1018 30.06 847 25.01 8.8 47.9 48 -1.5 29.3
03:10 1018 30.06 847 25.01 8.9 48.1 47 -1.6 29.1
03:15 1018 30.06 847 25.01 9.1 48.5 48 -1.4 29.5
03:20 1018 30.06 847 25.01 8.8 47.9 49 -1.3 29.6
03:25 1018 30.06 847 25.01 9 48.1 48 -1.5 29.2
03:30 1018 30.06 847 25.01 9 48.1 48 -1.3 29.6
03:35 1018 30.06 847 25.01 8.6 47.5 49 -1.4 29.5
03:40 1018 30.06 847 25.01 8.5 47.3 51 -1 30.1
03:45 1018 30.06 847 25.01 8.4 47.1 50 -1.3 29.7
03:50 1018 30.06 847 25.01 8.4 47 51 -1.1 29.9
03:55 1018 30.06 847 25.01 8.2 46.8 51 -1.3 29.7
04:00 1018 30.06 847 25.01 8.4 47 50 -1.4 29.5
04:05 1018 30.06 847 25.01 8.6 47.4 48 -1.7 28.9
04:10 1018 30.06 847 25.01 8.6 47.4 49 -1.6 29.1
04:15 1017 30.03 847 25.01 8.4 47.1 50 -1.3 29.7
04:20 1017 30.03 847 25.01 8.2 46.8 51 -1.2 29.8
04:25 1017 30.03 847 25.01 8 46.5 53 -1 30.2
04:30 1017 30.03 847 25.01 8.4 47.1 47 -2.2 28.1
04:35 1017 30.03 847 25.01 8.5 47.4 50 -1.1 29.9
04:40 1017 30.03 847 25.01 8.2 46.8 52 -1.1 29.9
04:45 1017 30.03 846 24.98 7.9 46.2 52 -1.4 29.4
04:50 1017 30.03 846 24.98 7.8 46 52 -1.4 29.4
04:55 1017 30.03 847 25.01 7.5 45.5 55 -0.9 30.3
05:00 1017 30.03 847 25.01 7.1 44.7 56 -1 30.2
05:05 1017 30.03 847 25.01 7.1 44.7 54 -1.6 29.2
05:10 1017 30.03 847 25.01 7.8 46 50 -2.1 28.2
05:15 1017 30.03 846 24.98 8 46.4 50 -1.6 29.1
05:20 1017 30.03 846 24.98 8 46.3 50 -1.9 28.5
05:25 1017 30.03 846 24.98 8 46.5 51 -1.6 29.2
05:30 1017 30.03 846 24.98 7.4 45.4 53 -1.4 29.4
05:35 1017 30.03 846 24.98 7.2 44.9 55 -1.2 29.8
05:40 1017 30.03 846 24.98 7 44.6 54 -1.6 29.2
05:45 1017 30.03 846 24.98 7.3 45.1 53 -1.5 29.3
05:50 1017 30.03 846 24.98 7.3 45.2 53 -1.5 29.4
05:55 1017 30.03 846 24.98 7.3 45.1 53 -1.7 29
06:00 1017 30.03 846 24.98 7.4 45.4 53 -1.6 29.1
06:05 1017 30.03 846 24.98 7.2 45 55 -1.1 30
06:10 1017 30.03 846 24.98 6.9 44.4 55 -1.5 29.3
06:15 1017 30.03 846 24.98 7.2 44.9 52 -1.9 28.6
06:20 1017 30.03 846 24.98 7.4 45.2 52 -1.8 28.7
06:25 1017 30.03 846 24.98 7.5 45.5 52 -1.7 29
06:30 1017 30.03 846 24.98 7.5 45.6 50 -2.1 28.2
06:35 1017 30.03 846 24.98 7.7 45.8 51 -1.8 28.8
06:40 1017 30.03 846 24.98 7.4 45.3 52 -1.7 28.9
06:45 1017 30.03 846 24.98 7.4 45.2 51 -2 28.4
06:50 1017 30.03 846 24.98 7.6 45.8 48 -2.5 27.4
06:55 1017 30.03 846 24.98 7.6 45.7 52 -1.6 29.1
07:00 1017 30.03 846 24.98 7.3 45.1 50 -2.3 27.8
07:05 1017 30.03 846 24.98 8.1 46.6 47 -2.5 27.6
07:10 1017 30.03 846 24.98 8.2 46.7 46 -2.7 27.1
07:15 1017 30.03 846 24.98 8.2 46.7 46 -2.8 26.9
07:20 1017 30.03 846 24.98 8.3 46.9 45 -2.9 26.8
07:25 1017 30.03 846 24.98 8.4 47.1 46 -2.5 27.6
07:30 1017 30.03 846 24.98 8.1 46.6 47 -2.4 27.7
07:35 1017 30.03 846 24.98 7.8 46.1 48 -2.4 27.7
07:40 1017 30.03 846 24.98 7.7 45.8 47 -2.8 27
07:45 1017 30.03 846 24.98 7.9 46.2 45 -3.2 26.2
07:50 1017 30.03 846 24.98 8.2 46.8 43 -3.5 25.7
07:55 1017 30.03 846 24.98 8.4 47.2 43 -3.4 25.9
08:00 1017 30.03 846 24.98 8.7 47.6 43 -3 26.5
08:05 1017 30.03 846 24.98 8.8 47.8 42 -3.3 26
08:10 1017 30.03 846 24.98 9 48.1 42 -3.3 26.1
08:15 1017 30.03 846 24.98 9.3 48.7 39 -3.8 25.2
08:20 1017 30.03 846 24.98 9.5 49 42 -2.9 26.7
08:25 1017 30.03 846 24.98 9.4 48.9 44 -2.3 27.9
08:30 1017 30.03 846 24.98 9.6 49.2 45 -1.8 28.8
08:35 1017 30.03 846 24.98 10 50 43 -2.1 28.3
08:40 1017 30.03 846 24.98 10.9 51.7 40 -2.1 28.2
08:45 1017 30.03 846 24.98 11.5 52.7 42 -0.8 30.6
08:50 1017 30.03 846 24.98 11.2 52.2 43 -0.7 30.7
08:55 1017 30.03 846 24.98 10.9 51.6 44 -0.7 30.8
09:00 1017 30.03 846 24.98 10.9 51.7 43 -1.1 30
09:05 1017 30.03 846 24.98 10.9 51.7 45 -0.5 31.2
09:10 1017 30.03 846 24.98 10.5 50.9 47 -0.3 31.4
09:15 1017 30.03 846 24.98 10.5 50.9 47 -0.4 31.3
09:20 1017 30.03 846 24.98 11 51.8 46 -0.1 31.7
09:25 1017 30.03 846 24.98 11 51.8 45 -0.3 31.5
09:30 1017 30.03 846 24.98 11.3 52.3 43 -0.9 30.3
09:35 1017 30.03 846 24.98 11.2 52.1 44 -0.7 30.7
09:40 1017 30.03 846 24.98 11.2 52.1 44 -0.7 30.8
09:45 1016 30 846 24.98 11.7 53 42 -0.7 30.8
09:50 1016 30 846 24.98 12.7 54.8 39 -0.9 30.4
09:55 1016 30 846 24.98 13.2 55.8 37 -1.2 29.8
10:00 1016 30 846 24.98 13.2 55.7 35 -1.8 28.8
10:05 1016 30 846 24.98 13.3 55.9 36 -1.5 29.3
10:10 1016 30 845 24.95 13.5 56.4 37 -0.9 30.4
10:15 1016 30 845 24.95 13.6 56.6 36 -1.1 29.9
10:20 1016 30 845 24.95 14.4 58 34 -1.2 29.8
10:25 1016 30 845 24.95 15.5 60 33 -0.5 31.1
10:30 1016 30 845 24.95 15.8 60.4 33 -0.3 31.4
10:35 1016 30 845 24.95 15.8 60.4 33 -0.5 31.2
10:40 1016 30 845 24.95 16.1 60.9 32 -0.4 31.3
10:45 1016 30 845 24.95 16.5 61.7 32 -0.1 31.8
10:50 1016 30 845 24.95 16.9 62.5 32 0.3 32.5
10:55 1016 30 845 24.95 16.5 61.7 34 0.6 33.1
11:00 1016 30 845 24.95 16.1 61 34 0.4 32.7
11:05 1016 30 845 24.95 16.2 61.1 34 0.2 32.4
11:10 1016 30 845 24.95 17.1 62.9 32 0.5 32.9
11:15 1016 30 845 24.95 17.9 64.1 31 0.5 32.8
11:20 1016 30 845 24.95 17.9 64.3 31 0.8 33.5
11:25 1015 29.97 845 24.95 18 64.4 30 0.4 32.7
11:30 1016 30 845 24.95 18.9 66 29 0.8 33.5
11:35 1015 29.97 845 24.95 19.1 66.5 29 0.7 33.3
11:40 1015 29.97 845 24.95 17.9 64.3 32 1.1 34.1
11:45 1015 29.97 845 24.95 17.1 62.7 33 0.7 33.3
11:50 1015 29.97 844 24.92 17.6 63.7 31 0.3 32.6
11:55 1015 29.97 844 24.92 17.9 64.1 32 1.2 34.2
12:00 1015 29.97 844 24.92 17.3 63.1 32 0.7 33.2
12:05 1015 29.97 844 24.92 17.2 62.9 33 0.8 33.5
12:10 1015 29.97 844 24.92 16.5 61.7 34 0.8 33.4
12:15 1015 29.97 844 24.92 16.6 61.9 34 0.6 33.1
12:20 1015 29.97 844 24.92 17.3 63.1 33 0.8 33.5
12:25 1015 29.97 844 24.92 17.6 63.6 31 0.5 32.8
12:30 1015 29.97 844 24.92 17.5 63.6 32 0.9 33.6
12:35 1015 29.97 844 24.92 17.7 63.9 32 0.8 33.4
12:40 1015 29.97 844 24.92 18.1 64.6 30 0.4 32.7
12:45 1015 29.97 844 24.92 17.3 63.2 32 0.6 33.1
12:50 1015 29.97 844 24.92 17.7 63.8 32 0.8 33.4
12:55 1015 29.97 844 24.92 18.1 64.6 31 0.9 33.7
13:00 1015 29.97 844 24.92 18.1 64.6 32 1.4 34.6
13:05 1014 29.94 844 24.92 18.3 64.9 32 1.2 34.2
13:10 1014 29.94 844 24.92 18.4 65.2 32 1.5 34.8
13:15 1014 29.94 844 24.92 18.1 64.7 32 1.2 34.2
13:20 1014 29.94 844 24.92 18.4 65 32 1.3 34.4
13:25 1014 29.94 843 24.89 18.1 64.6 32 1.4 34.5
13:30 1014 29.94 843 24.89 17.5 63.5 34 1.4 34.5
13:35 1014 29.94 843 24.89 17.2 63 33 1 33.8
13:40 1014 29.94 843 24.89 16.8 62.3 35 1.2 34.2
13:45 1014 29.94 843 24.89 16.5 61.7 35 1 33.7
13:50 1014 29.94 843 24.89 17.1 62.9 34 1.3 34.3
13:55 1014 29.94 843 24.89 17.6 63.6 33 1.4 34.5
14:00 1014 29.94 843 24.89 17.3 63.2 34 1.3 34.4
14:05 1014 29.94 843 24.89 17.6 63.6 34 1.4 34.6
14:10 1013 29.91 843 24.89 18.5 65.3 32 1.5 34.7
14:15 1013 29.91 843 24.89 18.8 65.9 32 1.9 35.4
14:20 1013 29.91 842 24.86 19.7 67.5 31 2.2 36
14:25 1013 29.91 842 24.86 20.6 69.1 29 2.4 36.2
14:30 1013 29.91 842 24.86 20.9 69.5 30 3 37.4
14:35 1013 29.91 842 24.86 20.3 68.5 32 3 37.4
14:40 1013 29.91 842 24.86 20.5 68.9 31 3.1 37.6
14:45 1013 29.91 842 24.86 21.1 70.1 29 2.5 36.6
14:50 1013 29.91 842 24.86 21.7 71 28 2.7 36.9
14:55 1013 29.91 842 24.86 21.1 70 30 3.1 37.6
15:00 1013 29.91 842 24.86 21.1 70 30 3.2 37.8
15:05 1013 29.91 842 24.86 21 69.8 32 3.7 38.6
15:10 1013 29.91 842 24.86 20.9 69.5 31 3.1 37.6
15:15 1013 29.91 842 24.86 20.1 68.2 32 3 37.5
15:20 1013 29.91 842 24.86 20 67.9 31 2.5 36.4
15:25 1013 29.91 842 24.86 20.3 68.6 32 3.2 37.7
15:30 1013 29.91 842 24.86 19.8 67.7 32 2.8 37
15:35 1013 29.91 842 24.86 19.9 67.8 32 3 37.4
15:40 1013 29.91 842 24.86 19.9 67.8 32 2.7 36.9
15:45 1013 29.91 842 24.86 19.7 67.4 32 2.8 37
15:50 1013 29.91 842 24.86 19.6 67.3 33 3.1 37.6
15:55 1013 29.91 842 24.86 19.1 66.4 33 2.7 36.8
16:00 1013 29.91 842 24.86 19.2 66.5 32 2.3 36.1
16:05 1013 29.91 842 24.86 19.3 66.8 32 2.5 36.6
16:10 1013 29.91 842 24.86 19.2 66.6 32 2.3 36.2
16:15 1013 29.91 842 24.86 18.9 66.1 33 2.3 36.2
16:20 1013 29.91 842 24.86 18.4 65.2 32 1.8 35.2
16:25 1013 29.91 842 24.86 18.4 65.2 30 0.7 33.2
16:30 1013 29.91 842 24.86 19.1 66.4 31 1.7 35.1
16:35 1013 29.91 842 24.86 19.4 67 32 2.7 36.8
16:40 1013 29.91 842 24.86 19.5 67.1 31 2.2 36
16:45 1013 29.91 842 24.86 19.7 67.4 30 1.8 35.3
16:50 1013 29.91 842 24.86 19.2 66.6 30 1.3 34.3
16:55 1013 29.91 842 24.86 19.4 66.9 30 1.6 34.8
17:00 1013 29.91 842 24.86 19.4 66.9 31 2.2 35.9
17:05 1013 29.91 842 24.86 19.4 66.8 27 0.1 32.2
17:10 1013 29.91 842 24.86 19.2 66.5 29 0.9 33.6
17:15 1013 29.91 842 24.86 19.1 66.4 30 1.5 34.7
17:20 1013 29.91 842 24.86 18.9 66 30 1 33.9
17:25 1013 29.91 842 24.86 18.9 65.9 31 1.7 35
17:30 1013 29.91 842 24.86 18.7 65.7 31 1.5 34.7
17:35 1013 29.91 842 24.86 18.5 65.3 34 2.7 36.8
17:40 1013 29.91 842 24.86 18.4 65.2 38 3.9 39
17:45 1013 29.91 842 24.86 18.4 65.1 39 4.4 39.9
17:50 1013 29.91 842 24.86 18.3 64.9 39 4.4 39.9
17:55 1013 29.91 843 24.89 18.3 65 39 4.2 39.5
18:00 1014 29.94 843 24.89 18.3 65 37 3.5 38.3
18:05 1014 29.94 843 24.89 18.5 65.2 33 1.9 35.5
18:10 1014 29.94 843 24.89 18.3 65 32 1.5 34.7
18:15 1014 29.94 843 24.89 18.3 64.9 35 2.6 36.6
18:20 1014 29.94 843 24.89 18.2 64.8 36 2.9 37.2
18:25 1014 29.94 843 24.89 18.3 64.9 36 3.1 37.6
18:30 1014 29.94 843 24.89 18.1 64.6 31 0.8 33.4
18:35 1014 29.94 843 24.89 18.1 64.7 31 0.7 33.3
18:40 1014 29.94 843 24.89 18 64.4 30 0.3 32.6
18:45 1014 29.94 843 24.89 18 64.3 30 0.3 32.6
18:50 1014 29.94 843 24.89 17.7 63.9 31 0.6 33
18:55 1014 29.94 843 24.89 17.3 63.1 33 1 33.8
19:00 1014 29.94 843 24.89 17.1 62.7 33 1 33.7
19:05 1014 29.94 843 24.89 17.1 62.8 34 1.2 34.1
19:10 1014 29.94 843 24.89 17.1 62.7 32 0.5 32.9
19:15 1013 29.91 843 24.89 17.1 62.7 32 0.5 32.8
19:20 1013 29.91 843 24.89 17 62.6 32 0.3 32.5
19:25 1013 29.91 843 24.89 17 62.5 31 -0 31.9
19:30 1013 29.91 843 24.89 16.9 62.5 31 0 32
19:35 1013 29.91 843 24.89 16.6 61.9 36 1.4 34.6
19:40 1013 29.91 843 24.89 16.3 61.3 44 4 39.2
19:45 1013 29.91 842 24.86 16.3 61.3 47 5 41
19:50 1013 29.91 843 24.89 16.2 61.2 48 5.3 41.5
19:55 1013 29.91 843 24.89 16.1 61 48 5.2 41.4
20:00 1013 29.91 843 24.89 16.1 60.9 48 5.3 41.5
20:05 1013 29.91 843 24.89 16 60.8 49 5.3 41.6
20:10 1013 29.91 843 24.89 16 60.8 49 5.4 41.7
20:15 1013 29.91 843 24.89 16 60.8 49 5.5 41.8
20:20 1014 29.94 843 24.89 16 60.8 49 5.4 41.7
20:25 1014 29.94 843 24.89 15.9 60.6 49 5.4 41.7
20:30 1013 29.91 843 24.89 15.9 60.7 49 5.2 41.4
20:35 1014 29.94 843 24.89 15.9 60.7 49 5.4 41.7
20:40 1014 29.94 843 24.89 15.9 60.5 50 5.4 41.8
20:45 1014 29.94 843 24.89 15.8 60.5 50 5.5 41.8
20:50 1014 29.94 843 24.89 15.8 60.5 50 5.5 41.8
20:55 1013 29.91 843 24.89 15.8 60.4 50 5.5 42
21:00 1013 29.91 843 24.89 15.7 60.2 51 5.5 42
21:05 1013 29.91 843 24.89 15.6 60.1 51 5.6 42.1
21:10 1013 29.91 843 24.89 15.6 60 51 5.7 42.2
21:15 1013 29.91 843 24.89 15.5 59.9 52 5.7 42.3
21:20 1014 29.94 843 24.89 15.5 60 50 5.4 41.7
21:25 1014 29.94 843 24.89 15.6 60 51 5.5 42
21:30 1014 29.94 843 24.89 15.5 60 51 5.5 42
21:35 1014 29.94 843 24.89 15.3 59.6 53 6 42.8
21:40 1014 29.94 843 24.89 15.2 59.3 52 5.5 42
21:45 1014 29.94 843 24.89 15.2 59.3 57 6.9 44.4
21:50 1014 29.94 843 24.89 14.6 58.2 63 7.6 45.7
21:55 1014 29.94 843 24.89 14.5 58.1 63 7.6 45.6
22:00 1014 29.94 843 24.89 13.9 56.9 66 7.7 45.9
22:05 1014 29.94 843 24.89 13.6 56.5 66 7.4 45.3
22:10 1014 29.94 843 24.89 13.4 56.2 68 7.6 45.7
22:15 1014 29.94 843 24.89 13.3 55.9 69 7.7 45.8
22:20 1014 29.94 843 24.89 13.3 55.9 67 7.4 45.4
22:25 1014 29.94 843 24.89 13.4 56.1 67 7.5 45.6
22:30 1014 29.94 843 24.89 13.3 55.9 69 7.7 45.8
22:35 1014 29.94 843 24.89 13.1 55.6 71 8 46.3
22:40 1014 29.94 843 24.89 12.9 55.3 73 8.2 46.8
22:45 1014 29.94 843 24.89 12.7 54.9 73 8 46.5
22:50 1014 29.94 843 24.89 12.8 55 73 8 46.5
22:55 1014 29.94 843 24.89 12.8 55 72 7.8 46.1
23:00 1014 29.94 843 24.89 12.9 55.1 72 8 46.4
23:05 1014 29.94 843 24.89 12.8 55 72 7.9 46.3
23:10 1014 29.94 843 24.89 12.8 55 73 8.1 46.6
23:15 1014 29.94 843 24.89 12.7 54.8 74 8.1 46.6
23:20 1014 29.94 843 24.89 12.4 54.3 76 8.3 46.9
23:25 1014 29.94 843 24.89 12.4 54.3 74 7.9 46.2
23:30 1014 29.94 843 24.89 12.5 54.5 74 8.1 46.6
23:35 1014 29.94 843 24.89 12.5 54.4 73 7.8 46
23:40 1014 29.94 843 24.89 12.5 54.6 71 7.4 45.4
23:45 1014 29.94 843 24.89 12.7 54.8 73 7.9 46.2
23:50 1014 29.94 843 24.89 12.6 54.7 71 7.6 45.6
23:55 1014 29.94 843 24.89 12.7 54.8 73 8 46.5
24:00 1014 29.94 843 24.89 12.4 54.3 75 8.1 46.6